Élőkép

Információk

Albatrosz Repülő Egyesület
8000 Székesfehérvár,
Radványi utca 6.

Adószám:
19092908-2-07

Bankszámla szám:
Budapest Bank
10102952-01361819-00000001

Telefon: +36 30 9598-897

Telephey: Börgönd repülőtér

Börgöndi repülõtér

LHBP METAR/TAF

[source: ADDS]
METAR
TAF LHBP 012300Z 0200/0224 VRB03KT 5000 BR NSC TEMPO 0200/0207 1200 BCFG BECMG 0207/0210 23015G25KT 9999 NSW SCT025 BKN080 TEMPO 0213/0218 6000 -RA SHRA SCT015 BKN030 BECMG 0214/0217 28008KT BECMG 0218/0221 CAVOK TAF
TAF LHBP 012300Z 0200/0224 VRB03KT 5000 BR NSC TEMPO 0200/0207 1200 BCFG BECMG 0207/0210 23015G25KT 9999 NSW SCT025 BKN080 TEMPO 0213/0218 6000 -RA SHRA SCT015 BKN030 BECMG 0214/0217 28008KT BECMG 0218/0221 CAVOK =
SR / SS: 05:25 / 16:34 UTC (Börgönd 2015-03-02)
Hungarian Chinese (Simplified) Croatian Czech English Finnish French German Hebrew Italian Japanese Polish Portuguese Romanian Russian Serbian Slovak Slovenian Spanish

Belépés tagoknak